Terminal Aerodrome Forecast
Issued by NWS Northern Indiana

Home | Current Version | Previous Version | Graphics & Text | Print | Product List | Glossary On
Versions: 1 2 3 4 5 6 7 8 9 10 11 12 13 14 15 16 17
758
FTUS43 KIWX 151120
TAFFWA
TAF
KFWA 151120Z 1512/1612 12004KT P6SM BKN250
      TEMPO 1512/1514 5SM BR
     FM160000 14003KT P6SM BKN100
     FM160900 10004KT 5SM BR BKN030=

USA.gov is the U.S. government's official web portal to all federal, state and local government web resources and services.